createdAt,value
2018-06-30T00:00:48.953Z,0.00
2018-06-30T00:01:48.949Z,0.00
2018-06-30T00:02:48.948Z,0.00
2018-06-30T00:03:48.948Z,0.00
2018-06-30T00:04:48.949Z,0.00
2018-06-30T00:05:48.949Z,0.00
2018-06-30T00:06:48.949Z,0.00
2018-06-30T00:07:48.949Z,0.00
2018-06-30T00:08:48.950Z,0.00
2018-06-30T00:09:48.950Z,0.00
2018-06-30T00:10:48.948Z,0.00
2018-06-30T00:11:48.950Z,0.00
2018-06-30T00:12:48.951Z,0.00
2018-06-30T00:13:48.952Z,0.00
2018-06-30T00:14:48.950Z,0.00
2018-06-30T00:15:48.951Z,0.00
2018-06-30T00:16:48.950Z,0.00
2018-06-30T00:17:48.953Z,0.00
2018-06-30T00:18:48.954Z,0.00
2018-06-30T00:19:48.950Z,0.00
2018-06-30T00:20:48.952Z,0.00
2018-06-30T00:21:48.951Z,0.00
2018-06-30T00:22:48.951Z,0.00
2018-06-30T00:23:48.954Z,0.00
2018-06-30T00:24:48.957Z,0.00
2018-06-30T00:25:48.955Z,0.00
2018-06-30T00:26:48.952Z,0.00
2018-06-30T00:27:48.954Z,0.00
2018-06-30T00:28:48.955Z,0.00
2018-06-30T08:16:03.768Z,2081.25
2018-06-30T08:17:03.784Z,2199.38
2018-06-30T08:18:03.795Z,2143.13
2018-06-30T08:19:03.808Z,1974.38
2018-06-30T08:20:03.819Z,1878.75
2018-06-30T08:21:03.875Z,1985.63
2018-06-30T08:22:03.872Z,2075.63
2018-06-30T08:23:03.976Z,1968.75
2018-06-30T08:24:03.904Z,1951.88
2018-06-30T08:25:03.919Z,1996.88
2018-06-30T08:26:03.901Z,1991.25
2018-06-30T08:27:03.915Z,1856.25
2018-06-30T08:28:03.927Z,1951.88
2018-06-30T08:29:03.943Z,1912.50
2018-06-30T08:30:03.957Z,1861.88
2018-06-30T08:31:03.971Z,2002.50
2018-06-30T08:32:03.984Z,2103.75
2018-06-30T08:33:03.999Z,2002.50
2018-06-30T08:34:04.013Z,1890.00
2018-06-30T08:35:04.028Z,1867.50
2018-06-30T08:36:04.042Z,1895.63
2018-06-30T08:37:04.057Z,1974.38
2018-06-30T08:38:04.070Z,2030.63
2018-06-30T08:39:04.088Z,2036.25
2018-06-30T08:40:04.099Z,1946.25
2018-06-30T08:41:04.117Z,1912.50
2018-06-30T08:42:04.130Z,1833.75
2018-06-30T08:43:04.144Z,1760.63
2018-06-30T08:44:04.159Z,1794.38
2018-06-30T08:45:04.186Z,1867.50
2018-06-30T08:46:04.189Z,1856.25
2018-06-30T08:47:04.205Z,1839.38
2018-06-30T08:48:04.217Z,1861.88
2018-06-30T08:49:04.232Z,1861.88
2018-06-30T08:50:04.247Z,1693.13
2018-06-30T08:51:04.271Z,1687.50
2018-06-30T08:52:04.276Z,1850.63
2018-06-30T08:53:04.288Z,1800.00
2018-06-30T08:54:04.323Z,1620.00
2018-06-30T08:55:04.322Z,1710.00
2018-06-30T08:56:04.332Z,1749.38
2018-06-30T08:57:04.404Z,1856.25
2018-06-30T08:58:04.362Z,1839.38
2018-06-30T08:59:04.379Z,1738.13
2018-06-30T09:00:04.390Z,1777.50
2018-06-30T09:01:04.404Z,1642.50
2018-06-30T09:02:04.418Z,1676.25
2018-06-30T09:03:04.433Z,1805.63
2018-06-30T09:04:04.446Z,1681.88
2018-06-30T09:05:04.460Z,1625.63
2018-06-30T09:06:04.475Z,1811.25
2018-06-30T09:07:04.620Z,1726.88
2018-06-30T09:08:04.503Z,1659.38
2018-06-30T09:09:04.518Z,1586.25
2018-06-30T09:10:04.537Z,1614.38
2018-06-30T09:11:04.547Z,1636.88
2018-06-30T09:12:05.003Z,1501.88
2018-06-30T09:13:04.646Z,1541.25
2018-06-30T09:14:04.590Z,1625.63
2018-06-30T09:15:04.604Z,1552.50
2018-06-30T09:16:04.687Z,1569.38
2018-06-30T09:17:04.632Z,1580.63
2018-06-30T09:18:04.647Z,1485.00
2018-06-30T09:19:04.662Z,1445.63
2018-06-30T09:20:04.675Z,1530.00
2018-06-30T09:21:04.689Z,1530.00
2018-06-30T09:22:04.707Z,1524.38
2018-06-30T09:23:04.718Z,1546.88
2018-06-30T09:24:04.758Z,1473.75
2018-06-30T09:25:04.744Z,1524.38
2018-06-30T09:26:04.759Z,1530.00
2018-06-30T09:27:04.774Z,1462.50
2018-06-30T09:28:04.787Z,1473.75
2018-06-30T09:29:04.802Z,1406.25
2018-06-30T09:30:04.814Z,1361.25
2018-06-30T09:31:04.829Z,1338.75
2018-06-30T09:32:04.841Z,1462.50
2018-06-30T09:33:04.860Z,1366.88
2018-06-30T09:34:04.872Z,1327.50
2018-06-30T09:35:04.882Z,1316.25
2018-06-30T09:36:04.896Z,1321.88
2018-06-30T09:37:04.910Z,1395.00
2018-06-30T09:38:04.924Z,1271.25
2018-06-30T09:39:04.938Z,1237.50
2018-06-30T09:40:04.952Z,1248.75
2018-06-30T09:41:04.964Z,1226.25
2018-06-30T09:42:04.980Z,1243.13
2018-06-30T09:43:04.997Z,1147.50
2018-06-30T09:44:05.007Z,1136.25
2018-06-30T09:45:05.022Z,1198.13
2018-06-30T09:46:05.035Z,1198.13
2018-06-30T09:47:05.050Z,1220.63
2018-06-30T09:48:05.063Z,1113.75
2018-06-30T09:49:05.079Z,1231.88
2018-06-30T09:50:05.097Z,1192.50
2018-06-30T09:51:05.125Z,1141.88
2018-06-30T09:52:05.122Z,1254.38
2018-06-30T09:53:05.136Z,1192.50
2018-06-30T09:54:05.149Z,1158.75
2018-06-30T09:55:05.165Z,1203.75
2018-06-30T09:56:05.178Z,1226.25
2018-06-30T09:57:05.192Z,1203.75
2018-06-30T09:58:05.207Z,1141.88
2018-06-30T09:59:05.223Z,1153.13
2018-06-30T10:00:05.235Z,1243.13
2018-06-30T10:01:05.248Z,1158.75
2018-06-30T10:02:05.262Z,1231.88
2018-06-30T10:03:05.277Z,1226.25
2018-06-30T10:04:05.293Z,1518.75
2018-06-30T10:05:05.304Z,1676.25
2018-06-30T10:06:05.317Z,984.38
2018-06-30T10:07:05.329Z,579.38
2018-06-30T10:08:05.341Z,500.63
2018-06-30T10:09:05.376Z,461.25
2018-06-30T10:10:05.370Z,444.38
2018-06-30T10:11:05.386Z,433.13
2018-06-30T10:12:05.395Z,433.13
2018-06-30T10:13:05.408Z,433.13
2018-06-30T10:14:05.422Z,427.50
2018-06-30T10:15:05.435Z,433.13
2018-06-30T10:16:05.447Z,438.75
2018-06-30T10:17:05.460Z,461.25
2018-06-30T10:18:05.473Z,472.50
2018-06-30T10:19:05.540Z,472.50
2018-06-30T10:20:05.499Z,438.75
2018-06-30T10:21:05.539Z,410.63
2018-06-30T10:22:05.523Z,393.75
2018-06-30T10:23:05.537Z,365.63
2018-06-30T10:24:05.550Z,365.63
2018-06-30T10:25:05.560Z,360.00
2018-06-30T10:26:05.577Z,348.75
2018-06-30T10:27:05.588Z,348.75
2018-06-30T10:28:05.599Z,343.13
2018-06-30T10:29:05.612Z,343.13
2018-06-30T10:30:05.625Z,348.75
2018-06-30T10:31:05.636Z,343.13
2018-06-30T10:32:05.649Z,348.75
2018-06-30T10:33:05.661Z,348.75
2018-06-30T10:34:05.674Z,348.75
2018-06-30T10:35:05.688Z,348.75
2018-06-30T10:36:05.702Z,354.38
2018-06-30T10:37:05.906Z,348.75
2018-06-30T10:38:05.723Z,348.75
2018-06-30T10:39:05.736Z,348.75
2018-06-30T10:40:05.751Z,354.38
2018-06-30T10:41:05.855Z,360.00
2018-06-30T10:42:05.827Z,365.63
2018-06-30T10:43:05.785Z,371.25
2018-06-30T10:44:05.801Z,298.13
2018-06-30T10:45:05.809Z,196.88
2018-06-30T10:46:05.821Z,168.75
2018-06-30T10:47:05.835Z,292.50
2018-06-30T10:48:05.844Z,191.25
2018-06-30T10:49:05.857Z,168.75
2018-06-30T10:50:05.868Z,140.63
2018-06-30T10:51:05.879Z,129.38
2018-06-30T10:52:05.889Z,118.13
2018-06-30T10:53:05.902Z,112.50
2018-06-30T10:54:05.910Z,112.50
2018-06-30T10:55:05.920Z,118.13
2018-06-30T10:56:05.929Z,135.00
2018-06-30T10:57:05.945Z,168.75
2018-06-30T10:58:05.948Z,286.88
2018-06-30T10:59:05.958Z,365.63
2018-06-30T11:00:06.015Z,360.00
2018-06-30T11:01:05.977Z,236.25
2018-06-30T11:02:05.986Z,208.13
2018-06-30T11:03:05.994Z,354.38
2018-06-30T11:04:06.060Z,376.88
2018-06-30T11:05:06.033Z,376.88
2018-06-30T11:06:06.023Z,376.88
2018-06-30T11:07:06.032Z,371.25
2018-06-30T11:08:06.041Z,371.25
2018-06-30T11:09:06.058Z,247.50
2018-06-30T11:10:06.060Z,421.88
2018-06-30T11:11:06.096Z,444.38
2018-06-30T11:12:06.081Z,466.88
2018-06-30T11:13:06.090Z,466.88
2018-06-30T11:14:06.101Z,450.00
2018-06-30T11:15:06.114Z,427.50
2018-06-30T11:16:06.121Z,410.63
2018-06-30T11:17:06.132Z,399.38
2018-06-30T11:18:06.143Z,388.13
2018-06-30T11:19:06.207Z,388.13
2018-06-30T11:20:06.208Z,382.50
2018-06-30T11:21:06.175Z,376.88
2018-06-30T11:22:06.186Z,371.25
2018-06-30T11:23:06.199Z,365.63
2018-06-30T11:24:06.208Z,365.63
2018-06-30T11:25:06.219Z,371.25
2018-06-30T11:26:06.230Z,360.00
2018-06-30T11:27:06.241Z,348.75
2018-06-30T11:28:06.252Z,337.50
2018-06-30T11:29:06.264Z,337.50
2018-06-30T11:30:06.408Z,337.50
2018-06-30T11:31:06.289Z,337.50
2018-06-30T11:32:06.298Z,343.13
2018-06-30T11:33:06.309Z,337.50
2018-06-30T11:34:06.321Z,331.88
2018-06-30T11:35:06.333Z,326.25
2018-06-30T11:36:06.346Z,326.25
2018-06-30T11:37:06.355Z,326.25
2018-06-30T11:38:06.367Z,320.63
2018-06-30T11:39:06.378Z,320.63
2018-06-30T11:40:06.390Z,320.63
2018-06-30T11:41:06.401Z,320.63
2018-06-30T11:42:06.414Z,315.00
2018-06-30T11:43:06.426Z,326.25
2018-06-30T11:44:06.437Z,326.25
2018-06-30T11:45:06.449Z,326.25
2018-06-30T11:46:06.464Z,326.25
2018-06-30T11:47:06.472Z,326.25
2018-06-30T11:48:06.484Z,326.25
2018-06-30T11:49:06.497Z,331.88
2018-06-30T11:50:06.508Z,331.88
2018-06-30T11:51:06.522Z,337.50
2018-06-30T11:52:06.532Z,348.75
2018-06-30T11:53:06.543Z,241.88
2018-06-30T11:54:06.555Z,281.25
2018-06-30T11:55:06.567Z,343.13
2018-06-30T11:56:06.578Z,337.50
2018-06-30T11:57:06.591Z,337.50
2018-06-30T11:58:06.603Z,337.50
2018-06-30T11:59:06.614Z,337.50
2018-06-30T12:00:06.625Z,337.50
2018-06-30T12:01:06.639Z,157.50
2018-06-30T12:02:06.677Z,157.50
2018-06-30T12:03:06.661Z,191.25
2018-06-30T12:04:06.672Z,202.50
2018-06-30T12:05:06.683Z,174.38
2018-06-30T12:06:06.694Z,196.88
2018-06-30T12:07:06.706Z,315.00
2018-06-30T12:08:06.715Z,213.75
2018-06-30T12:09:06.726Z,163.13
2018-06-30T12:10:06.736Z,135.00
2018-06-30T12:11:06.747Z,123.75
2018-06-30T12:12:06.757Z,112.50
2018-06-30T12:13:06.765Z,106.88
2018-06-30T12:14:06.777Z,95.63
2018-06-30T12:15:06.786Z,90.00
2018-06-30T12:16:06.794Z,90.00
2018-06-30T12:17:06.804Z,95.63
2018-06-30T12:18:06.815Z,95.63
2018-06-30T12:19:06.822Z,101.25
2018-06-30T12:20:06.831Z,106.88
2018-06-30T12:21:06.839Z,112.50
2018-06-30T12:22:06.849Z,112.50
2018-06-30T12:23:06.855Z,123.75
2018-06-30T12:24:06.863Z,337.50
2018-06-30T12:25:06.872Z,348.75
2018-06-30T12:26:06.879Z,360.00
2018-06-30T12:27:06.889Z,360.00
2018-06-30T12:28:06.896Z,360.00
2018-06-30T12:29:06.910Z,331.88
2018-06-30T12:30:06.914Z,343.13
2018-06-30T12:31:06.922Z,360.00
2018-06-30T12:32:06.969Z,343.13
2018-06-30T12:33:06.940Z,337.50
2018-06-30T12:34:06.948Z,337.50
2018-06-30T12:35:06.957Z,337.50
2018-06-30T12:36:06.969Z,337.50
2018-06-30T12:37:06.975Z,331.88
2018-06-30T12:38:06.983Z,337.50
2018-06-30T12:39:07.037Z,343.13
2018-06-30T12:40:07.002Z,348.75
2018-06-30T12:41:07.013Z,348.75
2018-06-30T12:42:07.021Z,343.13
2018-06-30T12:43:07.031Z,343.13
2018-06-30T12:44:07.040Z,275.63
2018-06-30T12:45:07.050Z,151.88
2018-06-30T12:46:07.061Z,146.25
2018-06-30T12:47:07.069Z,135.00
2018-06-30T12:48:07.078Z,123.75
2018-06-30T12:49:07.089Z,118.13
2018-06-30T12:50:07.098Z,118.13
2018-06-30T12:51:07.106Z,123.75
2018-06-30T12:52:07.119Z,129.38
2018-06-30T12:53:07.128Z,140.63
2018-06-30T12:54:07.203Z,129.38
2018-06-30T12:55:07.142Z,135.00
2018-06-30T12:56:07.150Z,140.63
2018-06-30T12:57:07.159Z,140.63
2018-06-30T12:58:07.171Z,180.00
2018-06-30T12:59:07.176Z,213.75
2018-06-30T13:00:07.189Z,270.00
2018-06-30T13:01:07.195Z,281.25
2018-06-30T13:02:07.201Z,315.00
2018-06-30T13:03:07.209Z,365.63
2018-06-30T13:04:07.216Z,388.13
2018-06-30T13:05:07.224Z,371.25
2018-06-30T13:06:07.241Z,281.25
2018-06-30T13:07:07.243Z,157.50
2018-06-30T13:08:07.250Z,146.25
2018-06-30T13:09:07.315Z,135.00
2018-06-30T13:10:07.267Z,123.75
2018-06-30T13:11:07.276Z,118.13
2018-06-30T13:12:07.287Z,118.13
2018-06-30T13:13:07.292Z,129.38
2018-06-30T13:14:07.303Z,253.13
2018-06-30T13:15:07.309Z,135.00
2018-06-30T13:16:07.316Z,135.00
2018-06-30T13:17:07.325Z,157.50
2018-06-30T13:18:07.334Z,213.75
2018-06-30T13:19:07.341Z,129.38
2018-06-30T13:20:07.349Z,135.00
2018-06-30T13:21:07.356Z,123.75
2018-06-30T13:22:07.446Z,135.00
2018-06-30T13:23:07.409Z,151.88
2018-06-30T13:24:07.381Z,343.13
2018-06-30T13:25:07.389Z,343.13
2018-06-30T13:26:07.397Z,343.13
2018-06-30T13:27:07.406Z,343.13
2018-06-30T13:28:07.412Z,354.38
2018-06-30T13:29:07.423Z,360.00
2018-06-30T13:30:07.431Z,354.38
2018-06-30T13:31:07.439Z,348.75
2018-06-30T13:32:07.446Z,348.75
2018-06-30T13:33:07.455Z,348.75
2018-06-30T13:34:07.608Z,337.50
2018-06-30T13:35:07.559Z,337.50
2018-06-30T13:36:07.481Z,326.25
2018-06-30T13:37:07.489Z,219.38
2018-06-30T13:38:07.500Z,315.00
2018-06-30T13:39:07.509Z,258.75
2018-06-30T13:40:07.516Z,163.13
2018-06-30T13:41:07.527Z,123.75
2018-06-30T13:42:07.539Z,135.00
2018-06-30T13:43:07.584Z,320.63
2018-06-30T13:44:07.696Z,309.38
2018-06-30T13:45:07.563Z,309.38
2018-06-30T13:46:07.570Z,298.13
2018-06-30T13:47:07.579Z,281.25
2018-06-30T13:48:07.586Z,309.38
2018-06-30T13:49:07.594Z,315.00
2018-06-30T13:50:07.605Z,315.00
2018-06-30T13:51:07.614Z,320.63
2018-06-30T13:52:07.620Z,320.63
2018-06-30T13:53:07.629Z,320.63
2018-06-30T13:54:07.639Z,303.75
2018-06-30T13:55:07.647Z,309.38
2018-06-30T13:56:07.656Z,309.38
2018-06-30T13:57:07.665Z,309.38
2018-06-30T13:58:07.674Z,309.38
2018-06-30T13:59:07.683Z,275.63
2018-06-30T14:00:07.692Z,219.38
2018-06-30T14:01:07.701Z,281.25
2018-06-30T14:02:07.711Z,275.63
2018-06-30T14:03:07.719Z,286.88
2018-06-30T14:04:07.729Z,236.25
2018-06-30T14:05:07.738Z,275.63
2018-06-30T14:06:07.747Z,163.13
2018-06-30T14:07:07.812Z,118.13
2018-06-30T14:08:07.877Z,213.75
2018-06-30T14:09:07.773Z,123.75
2018-06-30T14:10:07.782Z,135.00
2018-06-30T14:11:07.790Z,281.25
2018-06-30T14:12:07.797Z,213.75
2018-06-30T14:13:07.807Z,140.63
2018-06-30T14:14:07.815Z,202.50
2018-06-30T14:15:07.827Z,275.63
2018-06-30T14:16:07.833Z,281.25
2018-06-30T14:17:07.841Z,123.75
2018-06-30T14:18:07.914Z,140.63
2018-06-30T14:19:07.858Z,286.88
2018-06-30T14:20:07.865Z,286.88
2018-06-30T14:21:07.872Z,281.25
2018-06-30T14:22:07.883Z,258.75
2018-06-30T14:23:07.890Z,281.25
2018-06-30T14:24:07.903Z,281.25
2018-06-30T14:25:07.906Z,286.88
2018-06-30T14:26:07.918Z,264.38
2018-06-30T14:27:07.925Z,286.88
2018-06-30T14:28:07.934Z,281.25
2018-06-30T14:29:07.939Z,281.25
2018-06-30T14:30:07.948Z,275.63
2018-06-30T14:31:07.956Z,247.50
2018-06-30T14:32:07.964Z,264.38
2018-06-30T14:33:07.974Z,281.25
2018-06-30T14:34:07.980Z,286.88
2018-06-30T14:35:07.993Z,286.88
2018-06-30T14:36:07.998Z,281.25
2018-06-30T14:37:08.006Z,281.25
2018-06-30T14:38:08.015Z,281.25
2018-06-30T14:39:08.024Z,270.00
2018-06-30T14:40:08.032Z,264.38
2018-06-30T14:41:08.041Z,258.75
2018-06-30T14:42:08.049Z,253.13
2018-06-30T14:43:08.058Z,247.50
2018-06-30T14:44:08.066Z,241.88
2018-06-30T14:45:08.074Z,241.88
2018-06-30T14:46:08.085Z,241.88
2018-06-30T14:47:08.092Z,241.88
2018-06-30T14:48:08.099Z,236.25
2018-06-30T14:49:08.109Z,236.25
2018-06-30T14:50:08.119Z,236.25
2018-06-30T14:51:08.126Z,225.00
2018-06-30T14:52:08.155Z,225.00
2018-06-30T14:53:08.143Z,225.00
2018-06-30T14:54:08.151Z,219.38
2018-06-30T14:55:08.187Z,219.38
2018-06-30T14:56:08.169Z,219.38
2018-06-30T14:57:08.178Z,219.38
2018-06-30T14:58:08.186Z,213.75
2018-06-30T14:59:08.195Z,208.13
2018-06-30T15:00:08.203Z,208.13
2018-06-30T15:01:08.213Z,202.50
2018-06-30T15:02:08.223Z,202.50
2018-06-30T15:03:08.230Z,196.88
2018-06-30T15:04:08.237Z,196.88
2018-06-30T15:05:08.246Z,196.88
2018-06-30T15:06:08.256Z,196.88
2018-06-30T15:07:08.264Z,196.88
2018-06-30T15:08:08.271Z,196.88
2018-06-30T15:09:08.280Z,196.88
2018-06-30T15:10:08.289Z,191.25
2018-06-30T15:11:08.297Z,196.88
2018-06-30T15:12:08.305Z,202.50
2018-06-30T15:13:08.319Z,202.50
2018-06-30T15:14:08.322Z,196.88
2018-06-30T15:15:08.330Z,123.75
2018-06-30T15:16:08.338Z,118.13
2018-06-30T15:17:08.345Z,112.50
2018-06-30T15:18:08.353Z,112.50
2018-06-30T15:19:08.362Z,106.88
2018-06-30T15:20:08.368Z,106.88
2018-06-30T15:21:08.377Z,118.13
2018-06-30T15:22:08.384Z,146.25
2018-06-30T15:23:08.391Z,157.50
2018-06-30T15:24:08.398Z,140.63
2018-06-30T15:25:08.406Z,168.75
2018-06-30T15:26:08.414Z,157.50
2018-06-30T15:27:08.421Z,168.75
2018-06-30T15:28:08.428Z,174.38
2018-06-30T15:29:08.435Z,174.38
2018-06-30T15:30:08.482Z,168.75
2018-06-30T15:31:08.461Z,140.63
2018-06-30T15:32:08.463Z,129.38
2018-06-30T15:33:08.464Z,129.38
2018-06-30T15:34:08.472Z,123.75
2018-06-30T15:35:08.481Z,129.38
2018-06-30T15:36:08.544Z,112.50
2018-06-30T15:37:08.493Z,135.00
2018-06-30T15:38:08.501Z,118.13
2018-06-30T15:39:08.508Z,112.50
2018-06-30T15:40:08.515Z,118.13
2018-06-30T15:41:08.520Z,135.00
2018-06-30T15:42:08.529Z,106.88
2018-06-30T15:43:08.537Z,123.75
2018-06-30T15:44:08.543Z,129.38
2018-06-30T15:45:08.549Z,118.13
2018-06-30T15:46:08.559Z,106.88
2018-06-30T15:47:08.564Z,135.00
2018-06-30T15:48:08.573Z,140.63
2018-06-30T15:49:08.577Z,140.63
2018-06-30T15:50:08.585Z,140.63
2018-06-30T15:51:08.597Z,129.38
2018-06-30T15:52:08.599Z,118.13
2018-06-30T15:53:08.606Z,112.50
2018-06-30T15:54:08.613Z,112.50
2018-06-30T15:55:08.620Z,106.88
2018-06-30T15:56:08.628Z,106.88
2018-06-30T15:57:08.634Z,106.88
2018-06-30T15:58:08.641Z,106.88
2018-06-30T15:59:08.657Z,84.38
2018-06-30T16:00:08.654Z,106.88
2018-06-30T16:01:08.661Z,118.13
2018-06-30T16:02:08.667Z,123.75
2018-06-30T16:03:08.674Z,123.75
2018-06-30T16:04:08.681Z,123.75
2018-06-30T16:05:08.989Z,118.13
2018-06-30T16:06:08.695Z,95.63
2018-06-30T16:07:08.702Z,101.25
2018-06-30T16:08:08.709Z,95.63
2018-06-30T16:09:08.714Z,101.25
2018-06-30T16:10:08.722Z,95.63
2018-06-30T16:11:08.728Z,95.63
2018-06-30T16:12:08.733Z,90.00
2018-06-30T16:13:08.744Z,84.38
2018-06-30T16:14:08.747Z,84.38
2018-06-30T16:15:08.753Z,78.75
2018-06-30T16:16:08.759Z,61.88
2018-06-30T16:17:08.765Z,67.50
2018-06-30T16:18:08.773Z,73.13
2018-06-30T16:19:08.781Z,73.13
2018-06-30T16:20:08.784Z,73.13
2018-06-30T16:21:08.793Z,67.50
2018-06-30T16:22:08.796Z,56.25
2018-06-30T16:23:08.869Z,56.25
2018-06-30T16:24:08.809Z,56.25
2018-06-30T16:25:08.816Z,56.25
2018-06-30T16:26:08.822Z,56.25
2018-06-30T16:27:08.827Z,56.25
2018-06-30T16:28:08.832Z,61.88
2018-06-30T16:29:08.839Z,73.13
2018-06-30T16:30:08.908Z,67.50
2018-06-30T16:31:08.851Z,67.50
2018-06-30T16:32:08.856Z,67.50
2018-06-30T16:33:08.882Z,67.50
2018-06-30T16:34:08.868Z,73.13
2018-06-30T16:35:08.873Z,78.75
2018-06-30T16:36:08.881Z,78.75
2018-06-30T16:37:08.885Z,78.75
2018-06-30T16:38:08.891Z,73.13
2018-06-30T16:39:08.897Z,73.13
2018-06-30T16:40:08.902Z,73.13
2018-06-30T16:41:08.908Z,73.13
2018-06-30T16:42:08.914Z,67.50
2018-06-30T16:43:08.919Z,67.50
2018-06-30T16:44:08.928Z,61.88
2018-06-30T16:45:08.931Z,61.88
2018-06-30T16:46:08.935Z,56.25
2018-06-30T16:47:08.942Z,61.88
2018-06-30T16:48:08.949Z,56.25
2018-06-30T16:49:08.969Z,50.63
2018-06-30T16:50:08.959Z,50.63
2018-06-30T16:51:08.964Z,50.63
2018-06-30T16:52:08.969Z,61.88
2018-06-30T16:53:08.978Z,56.25
2018-06-30T16:54:08.981Z,56.25
2018-06-30T16:55:08.986Z,56.25
2018-06-30T16:56:08.991Z,56.25
2018-06-30T16:57:08.997Z,56.25
2018-06-30T16:58:09.002Z,56.25
2018-06-30T16:59:09.007Z,56.25
2018-06-30T17:00:09.013Z,56.25
2018-06-30T17:01:09.019Z,56.25
2018-06-30T17:02:09.023Z,56.25
2018-06-30T17:03:09.029Z,56.25
2018-06-30T17:04:09.034Z,56.25
2018-06-30T17:05:09.040Z,56.25
2018-06-30T17:06:09.055Z,56.25
2018-06-30T17:07:09.051Z,56.25
2018-06-30T17:08:09.057Z,56.25
2018-06-30T17:09:09.061Z,56.25
2018-06-30T17:10:09.067Z,50.63
2018-06-30T17:11:09.080Z,56.25
2018-06-30T17:12:09.075Z,56.25
2018-06-30T17:13:09.082Z,61.88
2018-06-30T17:14:09.088Z,61.88
2018-06-30T17:15:09.092Z,61.88
2018-06-30T17:16:09.095Z,61.88
2018-06-30T17:17:09.102Z,61.88
2018-06-30T17:18:09.107Z,61.88
2018-06-30T17:19:09.112Z,56.25
2018-06-30T17:20:09.155Z,61.88
2018-06-30T17:21:09.123Z,56.25
2018-06-30T17:22:09.127Z,50.63
2018-06-30T17:23:09.133Z,50.63
2018-06-30T17:24:09.137Z,50.63
2018-06-30T17:25:09.142Z,50.63
2018-06-30T17:26:09.216Z,50.63
2018-06-30T17:27:09.156Z,50.63
2018-06-30T17:28:09.157Z,45.00
2018-06-30T17:29:09.161Z,45.00
2018-06-30T17:30:09.168Z,45.00
2018-06-30T17:31:09.173Z,45.00
2018-06-30T17:32:09.176Z,39.38
2018-06-30T17:33:09.182Z,33.75
2018-06-30T17:34:09.231Z,33.75
2018-06-30T17:35:09.192Z,28.13
2018-06-30T17:36:09.197Z,28.13
2018-06-30T17:37:09.202Z,28.13
2018-06-30T17:38:09.210Z,28.13
2018-06-30T17:39:09.212Z,28.13
2018-06-30T17:40:09.218Z,28.13
2018-06-30T17:41:09.221Z,28.13
2018-06-30T17:42:09.227Z,33.75
2018-06-30T17:43:09.230Z,33.75
2018-06-30T17:44:09.235Z,33.75
2018-06-30T17:45:09.241Z,33.75
2018-06-30T17:46:09.245Z,39.38
2018-06-30T17:47:09.250Z,39.38
2018-06-30T17:48:09.254Z,39.38
2018-06-30T17:49:09.262Z,39.38
2018-06-30T17:50:09.264Z,33.75
2018-06-30T17:51:09.270Z,33.75
2018-06-30T17:52:09.273Z,33.75
2018-06-30T17:53:09.278Z,33.75
2018-06-30T17:54:09.282Z,33.75
2018-06-30T17:55:09.287Z,33.75
2018-06-30T17:56:09.291Z,33.75
2018-06-30T17:57:09.296Z,33.75
2018-06-30T17:58:09.300Z,28.13
2018-06-30T17:59:09.305Z,28.13
2018-06-30T18:00:09.311Z,28.13
2018-06-30T18:01:09.315Z,28.13
2018-06-30T18:02:09.318Z,28.13
2018-06-30T18:03:09.324Z,28.13
2018-06-30T18:04:09.327Z,28.13
2018-06-30T18:05:09.333Z,28.13
2018-06-30T18:06:09.336Z,28.13
2018-06-30T18:07:09.342Z,28.13
2018-06-30T18:08:09.344Z,28.13
2018-06-30T18:09:09.349Z,28.13
2018-06-30T18:10:09.407Z,28.13
2018-06-30T18:11:09.358Z,28.13
2018-06-30T18:12:09.362Z,22.50
2018-06-30T18:13:09.368Z,22.50
2018-06-30T18:14:09.379Z,22.50
2018-06-30T18:15:09.380Z,22.50
2018-06-30T18:16:09.380Z,22.50
2018-06-30T18:17:09.384Z,22.50
2018-06-30T18:18:09.388Z,22.50
2018-06-30T18:19:09.393Z,22.50
2018-06-30T18:20:09.397Z,16.88
2018-06-30T18:21:09.403Z,16.88
2018-06-30T18:22:09.406Z,16.88
2018-06-30T18:23:09.411Z,16.88
2018-06-30T18:24:09.413Z,16.88
2018-06-30T18:25:09.419Z,16.88
2018-06-30T18:26:09.424Z,16.88
2018-06-30T18:27:09.427Z,16.88
2018-06-30T18:28:09.430Z,16.88
2018-06-30T18:29:09.440Z,16.88
2018-06-30T18:30:09.442Z,16.88
2018-06-30T18:31:09.443Z,16.88
2018-06-30T18:32:09.447Z,11.25
2018-06-30T18:33:09.451Z,11.25
2018-06-30T18:34:09.456Z,11.25
2018-06-30T18:35:09.462Z,11.25
2018-06-30T18:36:09.464Z,11.25
2018-06-30T18:37:09.471Z,11.25
2018-06-30T18:38:09.471Z,11.25
2018-06-30T18:39:09.505Z,11.25
2018-06-30T18:40:09.479Z,11.25
2018-06-30T18:41:09.484Z,11.25
2018-06-30T18:42:09.487Z,11.25
2018-06-30T18:43:09.492Z,11.25
2018-06-30T18:44:09.496Z,11.25
2018-06-30T18:45:09.499Z,11.25
2018-06-30T18:46:09.502Z,5.63
2018-06-30T18:47:09.508Z,5.63
2018-06-30T18:48:09.510Z,5.63
2018-06-30T18:49:09.517Z,5.63
2018-06-30T18:50:09.519Z,5.63
2018-06-30T18:51:09.525Z,5.63
2018-06-30T18:52:09.526Z,5.63
2018-06-30T18:53:09.530Z,5.63
2018-06-30T18:54:09.533Z,5.63
2018-06-30T18:55:09.538Z,5.63
2018-06-30T18:56:09.542Z,5.63
2018-06-30T18:57:09.546Z,5.63
2018-06-30T18:58:09.552Z,5.63
2018-06-30T18:59:09.553Z,5.63
2018-06-30T19:00:09.557Z,5.63
2018-06-30T19:01:09.561Z,5.63
2018-06-30T19:02:09.564Z,5.63
2018-06-30T19:03:09.619Z,0.00
2018-06-30T19:04:09.572Z,0.00
2018-06-30T19:05:09.575Z,0.00
2018-06-30T19:06:09.581Z,0.00
2018-06-30T19:07:09.584Z,0.00
2018-06-30T19:08:09.587Z,0.00
2018-06-30T19:09:09.592Z,0.00
2018-06-30T19:10:09.649Z,0.00
2018-06-30T19:11:09.599Z,0.00
2018-06-30T19:12:09.603Z,0.00
2018-06-30T19:13:09.605Z,0.00
2018-06-30T19:14:09.610Z,0.00
2018-06-30T19:15:09.614Z,0.00
2018-06-30T19:16:09.618Z,0.00
2018-06-30T19:17:09.622Z,0.00
2018-06-30T19:18:09.625Z,0.00
2018-06-30T19:19:09.629Z,0.00
2018-06-30T19:20:09.631Z,0.00
2018-06-30T19:21:09.637Z,0.00
2018-06-30T19:22:09.641Z,0.00
2018-06-30T19:23:09.644Z,0.00
2018-06-30T19:24:09.647Z,0.00
2018-06-30T19:25:09.651Z,0.00
2018-06-30T19:26:09.655Z,0.00
2018-06-30T19:27:09.659Z,0.00
2018-06-30T19:28:09.661Z,0.00
2018-06-30T19:29:09.665Z,0.00
2018-06-30T19:30:09.672Z,0.00
2018-06-30T19:31:09.672Z,0.00
2018-06-30T19:32:09.677Z,0.00
2018-06-30T19:33:09.682Z,0.00
2018-06-30T19:34:09.684Z,0.00
2018-06-30T19:35:09.689Z,0.00
2018-06-30T19:36:09.689Z,0.00
2018-06-30T19:37:09.693Z,0.00
2018-06-30T19:38:09.697Z,0.00
2018-06-30T19:39:09.701Z,0.00
2018-06-30T19:40:09.704Z,0.00
2018-06-30T19:41:09.705Z,0.00
2018-06-30T19:42:09.712Z,0.00
2018-06-30T19:43:09.715Z,0.00
2018-06-30T19:44:09.716Z,0.00
2018-06-30T19:45:09.720Z,0.00
2018-06-30T19:46:09.723Z,0.00
2018-06-30T19:47:09.727Z,0.00
2018-06-30T19:48:09.729Z,0.00
2018-06-30T19:49:09.732Z,0.00
2018-06-30T19:50:09.736Z,0.00
2018-06-30T19:51:09.740Z,0.00
2018-06-30T19:52:09.741Z,0.00
2018-06-30T19:53:09.747Z,0.00
2018-06-30T19:54:09.748Z,0.00
2018-06-30T19:55:09.752Z,0.00
2018-06-30T19:56:09.754Z,0.00
2018-06-30T19:57:09.769Z,0.00
2018-06-30T19:58:09.759Z,0.00
2018-06-30T19:59:09.764Z,0.00
2018-06-30T20:00:09.766Z,0.00
2018-06-30T20:01:09.768Z,0.00
2018-06-30T20:02:09.773Z,0.00
2018-06-30T20:03:09.777Z,0.00
2018-06-30T20:04:09.779Z,0.00
2018-06-30T20:05:09.782Z,0.00
2018-06-30T20:06:09.787Z,0.00
2018-06-30T20:07:09.790Z,0.00
2018-06-30T20:08:09.791Z,0.00
2018-06-30T20:09:09.795Z,0.00
2018-06-30T20:10:09.796Z,0.00
2018-06-30T20:11:09.804Z,0.00
2018-06-30T20:12:09.805Z,0.00
2018-06-30T20:13:09.807Z,0.00
2018-06-30T20:14:09.811Z,0.00
2018-06-30T20:15:09.814Z,0.00
2018-06-30T20:16:09.816Z,0.00
2018-06-30T20:17:09.819Z,0.00
2018-06-30T20:18:09.822Z,0.00
2018-06-30T20:19:09.826Z,0.00
2018-06-30T20:20:09.828Z,0.00
2018-06-30T20:21:09.831Z,0.00
2018-06-30T20:22:09.834Z,0.00
2018-06-30T20:23:09.837Z,0.00
2018-06-30T20:24:09.839Z,0.00
2018-06-30T20:25:09.843Z,0.00